sensor_id;sensor_type;location;lat;lon;timestamp;P1;durP1;ratioP1;P2;durP2;ratioP2
15159;SDS011;7680;48.800;9.680;2024-01-30T00:02:13;8.93;;;8.13;;
15159;SDS011;7680;48.800;9.680;2024-01-30T00:07:16;8.27;;;7.47;;
15159;SDS011;7680;48.800;9.680;2024-01-30T00:12:21;9.10;;;8.20;;
15159;SDS011;7680;48.800;9.680;2024-01-30T00:17:24;8.33;;;7.50;;
15159;SDS011;7680;48.800;9.680;2024-01-30T00:22:27;8.33;;;7.63;;
15159;SDS011;7680;48.800;9.680;2024-01-30T00:27:33;10.83;;;9.13;;
15159;SDS011;7680;48.800;9.680;2024-01-30T00:32:36;8.13;;;7.33;;
15159;SDS011;7680;48.800;9.680;2024-01-30T00:37:39;7.87;;;7.20;;
15159;SDS011;7680;48.800;9.680;2024-01-30T00:42:44;7.77;;;7.07;;
15159;SDS011;7680;48.800;9.680;2024-01-30T00:47:47;8.70;;;7.63;;
15159;SDS011;7680;48.800;9.680;2024-01-30T00:52:51;7.80;;;7.20;;
15159;SDS011;7680;48.800;9.680;2024-01-30T00:57:55;8.40;;;7.63;;
15159;SDS011;7680;48.800;9.680;2024-01-30T01:02:58;11.83;;;9.67;;
15159;SDS011;7680;48.800;9.680;2024-01-30T01:08:02;8.13;;;7.33;;
15159;SDS011;7680;48.800;9.680;2024-01-30T01:13:07;8.90;;;8.00;;
15159;SDS011;7680;48.800;9.680;2024-01-30T01:18:10;9.10;;;8.30;;
15159;SDS011;7680;48.800;9.680;2024-01-30T01:23:13;9.30;;;8.40;;
15159;SDS011;7680;48.800;9.680;2024-01-30T01:28:18;8.60;;;7.83;;
15159;SDS011;7680;48.800;9.680;2024-01-30T01:33:21;8.00;;;7.30;;
15159;SDS011;7680;48.800;9.680;2024-01-30T01:38:25;7.57;;;6.87;;
15159;SDS011;7680;48.800;9.680;2024-01-30T01:43:29;6.80;;;6.20;;
15159;SDS011;7680;48.800;9.680;2024-01-30T01:48:32;7.90;;;7.30;;
15159;SDS011;7680;48.800;9.680;2024-01-30T01:53:36;7.73;;;7.03;;
15159;SDS011;7680;48.800;9.680;2024-01-30T01:58:40;8.33;;;7.67;;
15159;SDS011;7680;48.800;9.680;2024-01-30T02:03:44;7.57;;;6.97;;
15159;SDS011;7680;48.800;9.680;2024-01-30T02:08:48;7.67;;;7.03;;
15159;SDS011;7680;48.800;9.680;2024-01-30T02:13:53;8.00;;;7.30;;
15159;SDS011;7680;48.800;9.680;2024-01-30T02:18:56;8.07;;;7.47;;
15159;SDS011;7680;48.800;9.680;2024-01-30T02:24:01;7.70;;;7.00;;
15159;SDS011;7680;48.800;9.680;2024-01-30T02:29:06;8.73;;;7.60;;
15159;SDS011;7680;48.800;9.680;2024-01-30T02:34:09;9.03;;;8.23;;
15159;SDS011;7680;48.800;9.680;2024-01-30T02:39:13;10.03;;;9.10;;
15159;SDS011;7680;48.800;9.680;2024-01-30T02:44:17;12.13;;;10.70;;
15159;SDS011;7680;48.800;9.680;2024-01-30T02:49:21;11.70;;;10.50;;
15159;SDS011;7680;48.800;9.680;2024-01-30T02:54:25;10.13;;;9.13;;
15159;SDS011;7680;48.800;9.680;2024-01-30T02:59:28;10.00;;;8.70;;
15159;SDS011;7680;48.800;9.680;2024-01-30T03:04:34;9.93;;;9.03;;
15159;SDS011;7680;48.800;9.680;2024-01-30T03:09:39;11.00;;;9.90;;
15159;SDS011;7680;48.800;9.680;2024-01-30T03:14:45;11.03;;;9.97;;
15159;SDS011;7680;48.800;9.680;2024-01-30T03:19:48;10.00;;;9.00;;
15159;SDS011;7680;48.800;9.680;2024-01-30T03:24:53;9.33;;;8.60;;
15159;SDS011;7680;48.800;9.680;2024-01-30T03:29:56;10.17;;;9.03;;
15159;SDS011;7680;48.800;9.680;2024-01-30T03:34:59;9.20;;;8.40;;
15159;SDS011;7680;48.800;9.680;2024-01-30T03:40:04;9.63;;;8.83;;
15159;SDS011;7680;48.800;9.680;2024-01-30T03:45:09;10.20;;;9.20;;
15159;SDS011;7680;48.800;9.680;2024-01-30T03:50:12;10.83;;;9.73;;
15159;SDS011;7680;48.800;9.680;2024-01-30T03:55:17;10.73;;;9.63;;
15159;SDS011;7680;48.800;9.680;2024-01-30T04:00:20;11.53;;;10.33;;
15159;SDS011;7680;48.800;9.680;2024-01-30T04:05:23;11.93;;;10.83;;
15159;SDS011;7680;48.800;9.680;2024-01-30T04:10:28;13.00;;;11.17;;
15159;SDS011;7680;48.800;9.680;2024-01-30T04:15:31;13.27;;;11.87;;
15159;SDS011;7680;48.800;9.680;2024-01-30T04:20:34;12.20;;;10.77;;
15159;SDS011;7680;48.800;9.680;2024-01-30T04:25:39;10.97;;;9.87;;
15159;SDS011;7680;48.800;9.680;2024-01-30T04:30:42;11.53;;;10.33;;
15159;SDS011;7680;48.800;9.680;2024-01-30T04:35:46;12.77;;;10.57;;
15159;SDS011;7680;48.800;9.680;2024-01-30T04:40:50;10.50;;;9.50;;
15159;SDS011;7680;48.800;9.680;2024-01-30T04:45:53;9.33;;;8.50;;
15159;SDS011;7680;48.800;9.680;2024-01-30T04:50:57;8.63;;;7.80;;
15159;SDS011;7680;48.800;9.680;2024-01-30T04:56:04;8.90;;;8.10;;
15159;SDS011;7680;48.800;9.680;2024-01-30T05:01:08;8.90;;;8.10;;
15159;SDS011;7680;48.800;9.680;2024-01-30T05:06:11;10.07;;;9.07;;
15159;SDS011;7680;48.800;9.680;2024-01-30T05:11:16;10.10;;;9.20;;
15159;SDS011;7680;48.800;9.680;2024-01-30T05:16:19;9.27;;;8.37;;
15159;SDS011;7680;48.800;9.680;2024-01-30T05:21:22;9.90;;;8.87;;
15159;SDS011;7680;48.800;9.680;2024-01-30T05:26:27;9.57;;;8.63;;
15159;SDS011;7680;48.800;9.680;2024-01-30T05:31:30;11.80;;;10.60;;
15159;SDS011;7680;48.800;9.680;2024-01-30T05:36:33;12.00;;;10.80;;
15159;SDS011;7680;48.800;9.680;2024-01-30T05:41:38;10.87;;;9.77;;
15159;SDS011;7680;48.800;9.680;2024-01-30T05:46:41;11.97;;;10.50;;
15159;SDS011;7680;48.800;9.680;2024-01-30T05:51:44;12.23;;;11.00;;
15159;SDS011;7680;48.800;9.680;2024-01-30T05:56:49;12.47;;;11.17;;
15159;SDS011;7680;48.800;9.680;2024-01-30T06:01:52;12.37;;;11.27;;
15159;SDS011;7680;48.800;9.680;2024-01-30T06:06:55;13.50;;;12.10;;
15159;SDS011;7680;48.800;9.680;2024-01-30T06:12:00;11.83;;;10.63;;
15159;SDS011;7680;48.800;9.680;2024-01-30T06:17:03;12.60;;;11.30;;
15159;SDS011;7680;48.800;9.680;2024-01-30T06:22:07;11.13;;;10.03;;
15159;SDS011;7680;48.800;9.680;2024-01-30T06:27:11;12.17;;;10.87;;
15159;SDS011;7680;48.800;9.680;2024-01-30T06:32:14;12.47;;;11.17;;
15159;SDS011;7680;48.800;9.680;2024-01-30T06:37:18;12.07;;;10.97;;
15159;SDS011;7680;48.800;9.680;2024-01-30T06:42:22;12.40;;;11.20;;
15159;SDS011;7680;48.800;9.680;2024-01-30T06:47:25;12.37;;;11.13;;
15159;SDS011;7680;48.800;9.680;2024-01-30T06:52:30;13.07;;;11.77;;
15159;SDS011;7680;48.800;9.680;2024-01-30T06:57:34;13.13;;;11.73;;
15159;SDS011;7680;48.800;9.680;2024-01-30T07:02:37;11.37;;;10.17;;
15159;SDS011;7680;48.800;9.680;2024-01-30T07:07:41;11.70;;;10.60;;
15159;SDS011;7680;48.800;9.680;2024-01-30T07:12:45;12.17;;;10.97;;
15159;SDS011;7680;48.800;9.680;2024-01-30T07:17:49;12.77;;;11.50;;
15159;SDS011;7680;48.800;9.680;2024-01-30T07:22:52;11.63;;;10.43;;
15159;SDS011;7680;48.800;9.680;2024-01-30T07:27:56;11.27;;;10.17;;
15159;SDS011;7680;48.800;9.680;2024-01-30T07:32:59;11.20;;;9.73;;
15159;SDS011;7680;48.800;9.680;2024-01-30T07:38:03;11.03;;;10.03;;
15159;SDS011;7680;48.800;9.680;2024-01-30T07:43:07;11.23;;;9.90;;
15159;SDS011;7680;48.800;9.680;2024-01-30T07:48:11;11.17;;;10.17;;
15159;SDS011;7680;48.800;9.680;2024-01-30T07:53:15;12.00;;;10.97;;
15159;SDS011;7680;48.800;9.680;2024-01-30T07:58:20;12.47;;;11.37;;
15159;SDS011;7680;48.800;9.680;2024-01-30T08:03:25;10.47;;;9.37;;
15159;SDS011;7680;48.800;9.680;2024-01-30T08:08:28;10.80;;;9.80;;
15159;SDS011;7680;48.800;9.680;2024-01-30T08:13:32;11.80;;;10.43;;
15159;SDS011;7680;48.800;9.680;2024-01-30T08:18:36;12.03;;;10.83;;
15159;SDS011;7680;48.800;9.680;2024-01-30T08:23:39;12.97;;;11.67;;
15159;SDS011;7680;48.800;9.680;2024-01-30T08:28:44;10.63;;;9.60;;
15159;SDS011;7680;48.800;9.680;2024-01-30T08:33:47;11.03;;;9.93;;
15159;SDS011;7680;48.800;9.680;2024-01-30T08:38:50;11.47;;;10.47;;
15159;SDS011;7680;48.800;9.680;2024-01-30T08:44:02;12.53;;;11.33;;
15159;SDS011;7680;48.800;9.680;2024-01-30T08:49:05;14.80;;;13.27;;
15159;SDS011;7680;48.800;9.680;2024-01-30T08:54:09;13.97;;;12.57;;
15159;SDS011;7680;48.800;9.680;2024-01-30T08:59:14;13.17;;;11.93;;
15159;SDS011;7680;48.800;9.680;2024-01-30T09:04:17;14.13;;;12.70;;
15159;SDS011;7680;48.800;9.680;2024-01-30T09:09:23;13.83;;;12.43;;
15159;SDS011;7680;48.800;9.680;2024-01-30T09:14:27;14.63;;;13.23;;
15159;SDS011;7680;48.800;9.680;2024-01-30T09:19:31;14.73;;;13.23;;
15159;SDS011;7680;48.800;9.680;2024-01-30T09:24:34;15.50;;;14.10;;
15159;SDS011;7680;48.800;9.680;2024-01-30T09:29:39;13.80;;;12.50;;
15159;SDS011;7680;48.800;9.680;2024-01-30T09:34:42;14.80;;;13.37;;
15159;SDS011;7680;48.800;9.680;2024-01-30T09:39:45;14.47;;;13.17;;
15159;SDS011;7680;48.800;9.680;2024-01-30T09:44:50;14.33;;;12.93;;
15159;SDS011;7680;48.800;9.680;2024-01-30T09:49:54;14.20;;;12.87;;
15159;SDS011;7680;48.800;9.680;2024-01-30T09:54:59;16.23;;;14.70;;
15159;SDS011;7680;48.800;9.680;2024-01-30T10:00:05;14.67;;;13.17;;
15159;SDS011;7680;48.800;9.680;2024-01-30T10:05:10;15.83;;;14.23;;
15159;SDS011;7680;48.800;9.680;2024-01-30T10:10:18;15.23;;;13.80;;
15159;SDS011;7680;48.800;9.680;2024-01-30T10:15:22;14.73;;;13.43;;
15159;SDS011;7680;48.800;9.680;2024-01-30T10:20:26;15.20;;;13.70;;
15159;SDS011;7680;48.800;9.680;2024-01-30T10:25:30;16.03;;;13.70;;
15159;SDS011;7680;48.800;9.680;2024-01-30T10:30:35;14.10;;;12.70;;
15159;SDS011;7680;48.800;9.680;2024-01-30T10:35:38;14.10;;;12.70;;
15159;SDS011;7680;48.800;9.680;2024-01-30T10:40:41;12.27;;;11.07;;
15159;SDS011;7680;48.800;9.680;2024-01-30T10:45:47;14.53;;;13.03;;
15159;SDS011;7680;48.800;9.680;2024-01-30T10:50:55;14.57;;;13.03;;
15159;SDS011;7680;48.800;9.680;2024-01-30T10:56:02;15.47;;;12.97;;
15159;SDS011;7680;48.800;9.680;2024-01-30T11:01:08;14.43;;;13.03;;
15159;SDS011;7680;48.800;9.680;2024-01-30T11:06:12;12.73;;;11.43;;
15159;SDS011;7680;48.800;9.680;2024-01-30T11:11:20;18.70;;;14.57;;
15159;SDS011;7680;48.800;9.680;2024-01-30T11:16:30;14.68;;;13.30;;
15159;SDS011;7680;48.800;9.680;2024-01-30T11:21:38;15.13;;;12.63;;
15159;SDS011;7680;48.800;9.680;2024-01-30T11:26:44;12.50;;;11.30;;
15159;SDS011;7680;48.800;9.680;2024-01-30T11:31:54;12.68;;;11.40;;
15159;SDS011;7680;48.800;9.680;2024-01-30T11:36:59;15.50;;;13.95;;
15159;SDS011;7680;48.800;9.680;2024-01-30T11:42:06;14.75;;;13.35;;
15159;SDS011;7680;48.800;9.680;2024-01-30T11:47:12;13.23;;;11.93;;
15159;SDS011;7680;48.800;9.680;2024-01-30T11:52:16;13.85;;;12.45;;
15159;SDS011;7680;48.800;9.680;2024-01-30T11:57:20;14.10;;;12.73;;
15159;SDS011;7680;48.800;9.680;2024-01-30T12:02:24;15.25;;;13.70;;
15159;SDS011;7680;48.800;9.680;2024-01-30T12:07:28;14.25;;;12.85;;
15159;SDS011;7680;48.800;9.680;2024-01-30T12:12:31;17.80;;;14.02;;
15159;SDS011;7680;48.800;9.680;2024-01-30T12:17:36;13.40;;;12.00;;
15159;SDS011;7680;48.800;9.680;2024-01-30T12:22:40;14.20;;;12.80;;
15159;SDS011;7680;48.800;9.680;2024-01-30T12:27:45;12.43;;;11.23;;
15159;SDS011;7680;48.800;9.680;2024-01-30T12:32:53;11.15;;;10.15;;
15159;SDS011;7680;48.800;9.680;2024-01-30T12:37:56;9.77;;;8.82;;
15159;SDS011;7680;48.800;9.680;2024-01-30T12:43:00;11.23;;;10.10;;
15159;SDS011;7680;48.800;9.680;2024-01-30T12:48:05;12.10;;;10.63;;
15159;SDS011;7680;48.800;9.680;2024-01-30T12:53:09;12.95;;;11.70;;
15159;SDS011;7680;48.800;9.680;2024-01-30T12:58:13;11.18;;;10.18;;
15159;SDS011;7680;48.800;9.680;2024-01-30T13:03:18;11.23;;;10.23;;
15159;SDS011;7680;48.800;9.680;2024-01-30T13:08:21;11.15;;;10.07;;
15159;SDS011;7680;48.800;9.680;2024-01-30T13:13:25;13.68;;;10.82;;
15159;SDS011;7680;48.800;9.680;2024-01-30T13:18:29;9.15;;;8.23;;
15159;SDS011;7680;48.800;9.680;2024-01-30T13:23:32;9.00;;;8.10;;
15159;SDS011;7680;48.800;9.680;2024-01-30T13:28:36;7.82;;;7.13;;
15159;SDS011;7680;48.800;9.680;2024-01-30T13:33:40;8.40;;;7.43;;
15159;SDS011;7680;48.800;9.680;2024-01-30T13:38:43;9.13;;;8.23;;
15159;SDS011;7680;48.800;9.680;2024-01-30T13:43:46;8.90;;;7.75;;
15159;SDS011;7680;48.800;9.680;2024-01-30T13:48:52;9.00;;;7.82;;
15159;SDS011;7680;48.800;9.680;2024-01-30T13:53:55;9.00;;;8.15;;
15159;SDS011;7680;48.800;9.680;2024-01-30T13:58:58;8.25;;;7.45;;
15159;SDS011;7680;48.800;9.680;2024-01-30T14:04:04;10.48;;;9.38;;
15159;SDS011;7680;48.800;9.680;2024-01-30T14:09:12;9.30;;;8.48;;
15159;SDS011;7680;48.800;9.680;2024-01-30T14:14:16;9.15;;;8.20;;
15159;SDS011;7680;48.800;9.680;2024-01-30T14:19:21;9.43;;;8.50;;
15159;SDS011;7680;48.800;9.680;2024-01-30T14:24:24;8.02;;;7.22;;
15159;SDS011;7680;48.800;9.680;2024-01-30T14:29:27;7.47;;;6.75;;
15159;SDS011;7680;48.800;9.680;2024-01-30T14:34:32;6.43;;;5.82;;
15159;SDS011;7680;48.800;9.680;2024-01-30T14:39:35;6.20;;;5.65;;
15159;SDS011;7680;48.800;9.680;2024-01-30T14:44:38;8.90;;;7.15;;
15159;SDS011;7680;48.800;9.680;2024-01-30T14:49:43;6.95;;;6.00;;
15159;SDS011;7680;48.800;9.680;2024-01-30T14:54:46;7.28;;;5.75;;
15159;SDS011;7680;48.800;9.680;2024-01-30T14:59:49;7.10;;;6.50;;
15159;SDS011;7680;48.800;9.680;2024-01-30T15:04:54;8.13;;;7.10;;
15159;SDS011;7680;48.800;9.680;2024-01-30T15:09:57;9.02;;;7.00;;
15159;SDS011;7680;48.800;9.680;2024-01-30T15:15:01;7.72;;;6.93;;
15159;SDS011;7680;48.800;9.680;2024-01-30T15:20:07;7.53;;;6.82;;
15159;SDS011;7680;48.800;9.680;2024-01-30T15:25:11;7.50;;;6.60;;
15159;SDS011;7680;48.800;9.680;2024-01-30T15:30:14;6.32;;;5.70;;
15159;SDS011;7680;48.800;9.680;2024-01-30T15:35:19;10.40;;;9.30;;
15159;SDS011;7680;48.800;9.680;2024-01-30T15:40:22;11.10;;;9.95;;
15159;SDS011;7680;48.800;9.680;2024-01-30T15:45:26;7.78;;;7.07;;
15159;SDS011;7680;48.800;9.680;2024-01-30T15:50:31;7.45;;;6.82;;
15159;SDS011;7680;48.800;9.680;2024-01-30T15:55:34;13.55;;;12.18;;
15159;SDS011;7680;48.800;9.680;2024-01-30T16:00:37;12.25;;;11.15;;
15159;SDS011;7680;48.800;9.680;2024-01-30T16:05:42;12.68;;;10.88;;
15159;SDS011;7680;48.800;9.680;2024-01-30T16:10:45;11.43;;;10.27;;
15159;SDS011;7680;48.800;9.680;2024-01-30T16:15:48;12.00;;;10.70;;
15159;SDS011;7680;48.800;9.680;2024-01-30T16:20:53;8.20;;;7.47;;
15159;SDS011;7680;48.800;9.680;2024-01-30T16:25:56;8.20;;;7.40;;
15159;SDS011;7680;48.800;9.680;2024-01-30T16:30:59;7.82;;;7.03;;
15159;SDS011;7680;48.800;9.680;2024-01-30T16:36:05;7.65;;;6.95;;
15159;SDS011;7680;48.800;9.680;2024-01-30T16:41:08;6.47;;;5.83;;
15159;SDS011;7680;48.800;9.680;2024-01-30T16:46:11;6.77;;;6.10;;
15159;SDS011;7680;48.800;9.680;2024-01-30T16:51:16;6.65;;;5.70;;
15159;SDS011;7680;48.800;9.680;2024-01-30T16:56:20;7.73;;;7.03;;
15159;SDS011;7680;48.800;9.680;2024-01-30T17:01:23;7.00;;;6.40;;
15159;SDS011;7680;48.800;9.680;2024-01-30T17:06:27;7.73;;;7.03;;
15159;SDS011;7680;48.800;9.680;2024-01-30T17:11:31;8.20;;;7.50;;
15159;SDS011;7680;48.800;9.680;2024-01-30T17:16:34;6.97;;;6.37;;
15159;SDS011;7680;48.800;9.680;2024-01-30T17:21:39;6.53;;;5.93;;
15159;SDS011;7680;48.800;9.680;2024-01-30T17:26:42;6.63;;;6.03;;
15159;SDS011;7680;48.800;9.680;2024-01-30T17:31:46;6.83;;;6.20;;
15159;SDS011;7680;48.800;9.680;2024-01-30T17:36:51;7.83;;;7.10;;
15159;SDS011;7680;48.800;9.680;2024-01-30T17:41:54;7.50;;;6.80;;
15159;SDS011;7680;48.800;9.680;2024-01-30T17:46:57;8.77;;;7.97;;
15159;SDS011;7680;48.800;9.680;2024-01-30T17:52:01;8.73;;;7.87;;
15159;SDS011;7680;48.800;9.680;2024-01-30T17:57:05;11.23;;;9.77;;
15159;SDS011;7680;48.800;9.680;2024-01-30T18:02:08;11.60;;;10.40;;
15159;SDS011;7680;48.800;9.680;2024-01-30T18:07:14;13.07;;;11.70;;
15159;SDS011;7680;48.800;9.680;2024-01-30T18:12:17;13.30;;;11.83;;
15159;SDS011;7680;48.800;9.680;2024-01-30T18:17:20;11.97;;;10.77;;
15159;SDS011;7680;48.800;9.680;2024-01-30T18:22:25;13.90;;;12.70;;
15159;SDS011;7680;48.800;9.680;2024-01-30T18:27:28;14.83;;;13.70;;
15159;SDS011;7680;48.800;9.680;2024-01-30T18:32:32;14.03;;;12.83;;
15159;SDS011;7680;48.800;9.680;2024-01-30T18:37:36;10.97;;;10.00;;
15159;SDS011;7680;48.800;9.680;2024-01-30T18:42:39;14.47;;;12.97;;
15159;SDS011;7680;48.800;9.680;2024-01-30T18:47:42;13.10;;;11.80;;
15159;SDS011;7680;48.800;9.680;2024-01-30T18:52:47;11.87;;;10.77;;
15159;SDS011;7680;48.800;9.680;2024-01-30T18:57:50;9.73;;;8.83;;
15159;SDS011;7680;48.800;9.680;2024-01-30T19:02:53;10.23;;;9.23;;
15159;SDS011;7680;48.800;9.680;2024-01-30T19:07:58;10.33;;;9.33;;
15159;SDS011;7680;48.800;9.680;2024-01-30T19:13:01;11.37;;;10.27;;
15159;SDS011;7680;48.800;9.680;2024-01-30T19:18:05;12.20;;;10.80;;
15159;SDS011;7680;48.800;9.680;2024-01-30T19:23:10;12.63;;;11.33;;
15159;SDS011;7680;48.800;9.680;2024-01-30T19:28:13;11.33;;;10.13;;
15159;SDS011;7680;48.800;9.680;2024-01-30T19:33:16;8.57;;;7.87;;
15159;SDS011;7680;48.800;9.680;2024-01-30T19:38:21;9.43;;;8.53;;
15159;SDS011;7680;48.800;9.680;2024-01-30T19:43:25;9.30;;;8.30;;
15159;SDS011;7680;48.800;9.680;2024-01-30T19:48:29;13.83;;;12.53;;
15159;SDS011;7680;48.800;9.680;2024-01-30T19:53:33;15.93;;;14.33;;
15159;SDS011;7680;48.800;9.680;2024-01-30T19:58:36;15.83;;;14.33;;
15159;SDS011;7680;48.800;9.680;2024-01-30T20:03:40;18.40;;;16.70;;
15159;SDS011;7680;48.800;9.680;2024-01-30T20:08:44;11.20;;;10.10;;
15159;SDS011;7680;48.800;9.680;2024-01-30T20:13:47;12.77;;;11.57;;
15159;SDS011;7680;48.800;9.680;2024-01-30T20:18:50;9.67;;;8.77;;
15159;SDS011;7680;48.800;9.680;2024-01-30T20:23:55;12.77;;;11.47;;
15159;SDS011;7680;48.800;9.680;2024-01-30T20:28:58;11.33;;;10.23;;
15159;SDS011;7680;48.800;9.680;2024-01-30T20:34:02;11.10;;;10.10;;
15159;SDS011;7680;48.800;9.680;2024-01-30T20:39:06;13.90;;;12.50;;
15159;SDS011;7680;48.800;9.680;2024-01-30T20:44:11;14.47;;;13.03;;
15159;SDS011;7680;48.800;9.680;2024-01-30T20:49:16;13.97;;;12.67;;
15159;SDS011;7680;48.800;9.680;2024-01-30T20:54:21;14.97;;;13.57;;
15159;SDS011;7680;48.800;9.680;2024-01-30T20:59:24;14.60;;;13.20;;
15159;SDS011;7680;48.800;9.680;2024-01-30T21:04:27;14.17;;;12.77;;
15159;SDS011;7680;48.800;9.680;2024-01-30T21:09:32;14.63;;;13.33;;
15159;SDS011;7680;48.800;9.680;2024-01-30T21:14:35;13.40;;;12.07;;
15159;SDS011;7680;48.800;9.680;2024-01-30T21:19:38;12.57;;;11.30;;
15159;SDS011;7680;48.800;9.680;2024-01-30T21:24:43;12.23;;;11.03;;
15159;SDS011;7680;48.800;9.680;2024-01-30T21:29:46;12.50;;;11.10;;
15159;SDS011;7680;48.800;9.680;2024-01-30T21:34:49;12.77;;;11.67;;
15159;SDS011;7680;48.800;9.680;2024-01-30T21:39:53;12.90;;;11.73;;
15159;SDS011;7680;48.800;9.680;2024-01-30T21:44:57;11.40;;;10.40;;
15159;SDS011;7680;48.800;9.680;2024-01-30T21:50:00;11.17;;;10.13;;
15159;SDS011;7680;48.800;9.680;2024-01-30T21:55:08;10.87;;;9.87;;
15159;SDS011;7680;48.800;9.680;2024-01-30T22:00:12;11.97;;;10.77;;
15159;SDS011;7680;48.800;9.680;2024-01-30T22:05:16;10.97;;;10.03;;
15159;SDS011;7680;48.800;9.680;2024-01-30T22:10:21;11.10;;;10.00;;
15159;SDS011;7680;48.800;9.680;2024-01-30T22:15:24;11.23;;;10.20;;
15159;SDS011;7680;48.800;9.680;2024-01-30T22:20:27;10.67;;;9.57;;
15159;SDS011;7680;48.800;9.680;2024-01-30T22:25:32;10.47;;;8.57;;
15159;SDS011;7680;48.800;9.680;2024-01-30T22:30:35;10.93;;;9.93;;
15159;SDS011;7680;48.800;9.680;2024-01-30T22:35:38;11.10;;;10.10;;
15159;SDS011;7680;48.800;9.680;2024-01-30T22:40:43;11.13;;;10.23;;
15159;SDS011;7680;48.800;9.680;2024-01-30T22:45:47;17.00;;;14.70;;
15159;SDS011;7680;48.800;9.680;2024-01-30T22:50:50;15.27;;;13.70;;
15159;SDS011;7680;48.800;9.680;2024-01-30T22:55:54;13.80;;;12.40;;
15159;SDS011;7680;48.800;9.680;2024-01-30T23:00:57;13.77;;;11.97;;
15159;SDS011;7680;48.800;9.680;2024-01-30T23:06:00;14.30;;;12.63;;
15159;SDS011;7680;48.800;9.680;2024-01-30T23:11:05;15.23;;;11.90;;
15159;SDS011;7680;48.800;9.680;2024-01-30T23:16:13;14.63;;;11.93;;
15159;SDS011;7680;48.800;9.680;2024-01-30T23:21:16;13.33;;;12.00;;
15159;SDS011;7680;48.800;9.680;2024-01-30T23:26:22;13.00;;;11.67;;
15159;SDS011;7680;48.800;9.680;2024-01-30T23:31:25;11.07;;;9.87;;
15159;SDS011;7680;48.800;9.680;2024-01-30T23:36:29;11.70;;;10.60;;
15159;SDS011;7680;48.800;9.680;2024-01-30T23:41:34;11.83;;;10.70;;
15159;SDS011;7680;48.800;9.680;2024-01-30T23:46:37;13.27;;;11.97;;
15159;SDS011;7680;48.800;9.680;2024-01-30T23:51:40;12.50;;;11.30;;
15159;SDS011;7680;48.800;9.680;2024-01-30T23:56:45;10.57;;;9.57;;
